Weather at Emerald Plaza North Helipad

Public forecast

Using degrees Fahrenheit for public forecast. Weather courtesy of forecast.io.

Closest aviation weather report (METAR) to Emerald Plaza North Helipad

Closest report is San Diego International Airport, 1.6 nm (2.9 km) NW.

2024/06/15 13:51 (retrieved 1 hour ago)

KSAN 151351Z 36003KT 5SM BR OVC006 17/15 A2986 RMK AO2 SLP111 CIG 006V008 T01670150

Closest aviation forecast (TAF) to Emerald Plaza North Helipad

Closest forecast is San Diego International Airport, 1.6 nm (2.9 km) NW.

2024/06/15 14:00 Ammendment (retrieved 59 minutes ago)

TAF AMD KSAN 151357Z 1514/1618 VRB04KT 5SM BR OVC006 FM151530 VRB04KT P6SM SCT010 FM152000 27009KT P6SM SKC FM160300 VRB04KT P6SM SKC FM160600 19005KT 6SM BR BKN008 TEMPO 1612/1615 BKN010 FM161500 20005KT P6SM SCT010